createdAt,value
2022-10-03T00:01:39.580Z,24.00
2022-10-03T00:04:45.728Z,24.23
2022-10-03T00:07:32.239Z,24.41
2022-10-03T00:10:17.552Z,25.07
2022-10-03T00:13:08.564Z,25.32
2022-10-03T00:15:46.174Z,25.35
2022-10-03T00:18:35.071Z,25.22
2022-10-03T00:21:36.778Z,25.38
2022-10-03T00:24:23.192Z,24.58
2022-10-03T00:26:59.672Z,25.38
2022-10-03T00:29:43.645Z,25.72
2022-10-03T00:32:31.744Z,25.02
2022-10-03T00:38:13.852Z,25.28
2022-10-03T00:41:17.356Z,25.00
2022-10-03T00:44:25.857Z,25.00
2022-10-03T00:47:45.943Z,24.76
2022-10-03T00:50:53.635Z,24.94
2022-10-03T00:53:40.121Z,24.67
2022-10-03T00:56:44.574Z,24.06
2022-10-03T00:59:33.409Z,24.49
2022-10-03T01:02:30.102Z,24.28
2022-10-03T01:05:16.227Z,24.23
2022-10-03T01:08:32.512Z,23.60
2022-10-03T01:11:17.272Z,24.23
2022-10-03T01:13:59.240Z,24.62
2022-10-03T01:16:40.279Z,24.07
2022-10-03T01:19:37.541Z,24.28
2022-10-03T01:22:31.408Z,23.85
2022-10-03T01:25:08.585Z,24.71
2022-10-03T01:27:58.938Z,23.95
2022-10-03T01:30:36.884Z,24.31
2022-10-03T01:33:11.473Z,24.39
2022-10-03T01:36:05.572Z,23.37
2022-10-03T01:38:43.170Z,22.77
2022-10-03T01:41:25.046Z,23.00
2022-10-03T01:44:01.272Z,22.44
2022-10-03T01:46:40.262Z,22.77
2022-10-03T01:49:19.109Z,23.34
2022-10-03T01:51:59.672Z,23.52
2022-10-03T01:54:41.507Z,24.07
2022-10-03T01:57:19.727Z,23.42
2022-10-03T01:59:58.827Z,23.39
2022-10-03T02:02:36.827Z,24.05
2022-10-03T02:05:13.835Z,23.64
2022-10-03T02:07:51.735Z,23.41
2022-10-03T02:10:37.103Z,22.34
2022-10-03T02:13:14.767Z,22.45
2022-10-03T02:15:56.848Z,23.49
2022-10-03T02:18:44.981Z,22.80
2022-10-03T02:21:18.966Z,23.31
2022-10-03T02:23:48.582Z,23.72
2022-10-03T02:26:46.576Z,23.38
2022-10-03T02:30:05.932Z,22.58
2022-10-03T02:33:11.834Z,22.43
2022-10-03T02:36:27.218Z,22.57
2022-10-03T02:39:19.841Z,23.28
2022-10-03T02:42:34.618Z,22.97
2022-10-03T02:45:35.041Z,22.59
2022-10-03T02:48:46.958Z,22.75
2022-10-03T02:52:09.996Z,23.57
2022-10-03T02:54:58.796Z,22.67
2022-10-03T02:58:18.899Z,23.16
2022-10-03T03:01:41.556Z,23.65
2022-10-03T03:05:05.990Z,22.94
2022-10-03T03:07:59.287Z,23.82
2022-10-03T03:11:30.554Z,23.25
2022-10-03T03:14:42.244Z,23.99
2022-10-03T03:17:25.080Z,24.07
2022-10-03T03:20:12.919Z,23.20
2022-10-03T03:23:09.644Z,23.25
2022-10-03T03:26:30.249Z,22.60
2022-10-03T03:29:10.606Z,22.53
2022-10-03T03:31:54.550Z,23.21
2022-10-03T03:34:31.803Z,22.93
2022-10-03T03:37:07.467Z,23.56
2022-10-03T03:39:52.957Z,23.75
2022-10-03T03:42:49.066Z,23.42
2022-10-03T03:45:48.484Z,23.86
2022-10-03T03:48:50.515Z,23.44
2022-10-03T03:51:40.283Z,23.62
2022-10-03T03:54:57.684Z,24.06
2022-10-03T03:58:03.669Z,23.86
2022-10-03T04:00:50.835Z,23.72
2022-10-03T04:03:49.388Z,23.34
2022-10-03T04:06:37.338Z,23.79
2022-10-03T04:09:32.814Z,23.24
2022-10-03T04:12:11.427Z,23.35
2022-10-03T04:15:37.891Z,23.67
2022-10-03T04:18:58.021Z,23.62
2022-10-03T04:22:12.007Z,23.47
2022-10-03T04:25:20.650Z,22.78
2022-10-03T04:28:40.227Z,22.49
2022-10-03T04:31:39.516Z,23.05
2022-10-03T04:34:34.943Z,23.60
2022-10-03T04:37:28.440Z,22.93
2022-10-03T04:40:25.479Z,22.48
2022-10-03T04:43:07.410Z,23.00
2022-10-03T04:45:55.799Z,23.18
2022-10-03T04:48:47.426Z,22.46
2022-10-03T04:51:22.273Z,22.38
2022-10-03T04:53:59.435Z,22.30
2022-10-03T04:56:45.668Z,21.74
2022-10-03T04:59:50.440Z,21.75
2022-10-03T05:02:34.559Z,22.06
2022-10-03T05:05:48.639Z,21.31
2022-10-03T05:08:33.294Z,20.84
2022-10-03T05:11:30.952Z,20.85
2022-10-03T05:14:09.061Z,20.84
2022-10-03T05:16:46.485Z,21.16
2022-10-03T05:19:42.618Z,22.24
2022-10-03T05:22:28.864Z,22.55
2022-10-03T05:25:12.256Z,22.41
2022-10-03T05:27:52.056Z,22.14
2022-10-03T05:30:37.375Z,21.53
2022-10-03T05:33:31.558Z,21.47
2022-10-03T05:36:19.807Z,21.80
2022-10-03T05:39:21.835Z,21.45
2022-10-03T05:42:22.111Z,21.22
2022-10-03T05:45:01.993Z,21.72
2022-10-03T05:47:46.650Z,21.63
2022-10-03T05:50:57.786Z,21.81
2022-10-03T05:54:32.440Z,21.93
2022-10-03T05:58:25.529Z,21.59
2022-10-03T06:01:33.199Z,21.84
2022-10-03T06:04:38.860Z,21.53
2022-10-03T06:07:23.411Z,21.72
2022-10-03T06:10:25.737Z,21.91
2022-10-03T06:13:11.885Z,21.86
2022-10-03T06:16:04.278Z,21.32
2022-10-03T06:19:07.335Z,21.95
2022-10-03T06:22:38.770Z,22.48
2022-10-03T06:26:07.265Z,22.60
2022-10-03T06:29:20.982Z,23.05
2022-10-03T06:32:21.732Z,23.21
2022-10-03T06:35:37.804Z,23.36
2022-10-03T06:39:04.267Z,22.94
2022-10-03T06:42:20.597Z,23.06
2022-10-03T06:45:18.612Z,23.12
2022-10-03T06:48:05.768Z,22.00
2022-10-03T06:50:54.605Z,22.12
2022-10-03T06:53:40.506Z,22.68
2022-10-03T06:56:56.170Z,23.10
2022-10-03T06:59:56.394Z,22.43
2022-10-03T07:03:14.308Z,22.40
2022-10-03T07:06:10.243Z,23.32
2022-10-03T07:09:38.418Z,23.86
2022-10-03T07:12:54.688Z,24.15
2022-10-03T07:16:25.675Z,23.71
2022-10-03T07:19:28.452Z,24.60
2022-10-03T07:22:49.045Z,25.08
2022-10-03T07:25:54.300Z,24.34
2022-10-03T07:29:08.625Z,24.39
2022-10-03T07:32:23.419Z,24.41
2022-10-03T07:36:02.915Z,24.10
2022-10-03T07:39:16.695Z,24.84
2022-10-03T07:42:16.141Z,24.54
2022-10-03T07:45:34.581Z,24.25
2022-10-03T07:48:55.097Z,24.83
2022-10-03T07:51:43.464Z,25.25
2022-10-03T07:54:43.341Z,24.71
2022-10-03T07:57:56.446Z,23.92
2022-10-03T08:00:27.426Z,22.94
2022-10-03T08:03:57.674Z,24.09
2022-10-03T08:06:38.779Z,23.99
2022-10-03T08:09:49.423Z,24.29
2022-10-03T08:13:09.147Z,25.08
2022-10-03T08:16:03.538Z,26.18
2022-10-03T08:19:10.646Z,25.36
2022-10-03T08:21:58.132Z,24.98
2022-10-03T08:25:08.251Z,25.90
2022-10-03T08:28:09.747Z,26.93
2022-10-03T08:31:01.024Z,27.51
2022-10-03T08:34:07.431Z,25.80
2022-10-03T08:37:17.975Z,26.22
2022-10-03T08:40:53.633Z,26.11
2022-10-03T08:44:07.578Z,27.08
2022-10-03T08:47:26.776Z,26.16
2022-10-03T08:50:44.791Z,26.07
2022-10-03T08:53:56.154Z,27.43
2022-10-03T08:56:40.487Z,26.79
2022-10-03T08:59:57.803Z,27.19
2022-10-03T09:03:31.486Z,27.36
2022-10-03T09:07:05.457Z,26.54
2022-10-03T09:10:42.475Z,27.29
2022-10-03T09:13:53.284Z,27.80
2022-10-03T09:16:54.157Z,27.18
2022-10-03T09:20:25.720Z,26.75
2022-10-03T09:23:38.855Z,26.17
2022-10-03T09:26:50.032Z,26.72
2022-10-03T09:29:52.001Z,25.36
2022-10-03T09:33:07.381Z,26.74
2022-10-03T09:35:54.015Z,26.02
2022-10-03T09:39:14.888Z,25.89
2022-10-03T09:42:26.232Z,24.96
2022-10-03T09:45:22.103Z,25.05
2022-10-03T09:48:24.319Z,26.17
2022-10-03T09:51:36.253Z,25.88
2022-10-03T09:54:39.528Z,26.45
2022-10-03T09:58:02.680Z,26.29
2022-10-03T10:00:54.572Z,24.95
2022-10-03T10:04:09.241Z,25.94
2022-10-03T10:07:27.414Z,26.79
2022-10-03T10:10:54.116Z,25.34
2022-10-03T10:14:14.966Z,25.96
2022-10-03T10:17:30.643Z,26.28
2022-10-03T10:20:25.125Z,27.46
2022-10-03T10:23:20.847Z,26.95
2022-10-03T10:26:45.295Z,27.73
2022-10-03T10:30:05.865Z,26.39
2022-10-03T10:33:43.599Z,28.06
2022-10-03T10:37:02.957Z,25.39
2022-10-03T10:40:03.867Z,26.00
2022-10-03T10:43:42.447Z,26.40
2022-10-03T10:47:18.082Z,28.50
2022-10-03T10:50:44.145Z,25.79
2022-10-03T10:54:04.978Z,27.98
2022-10-03T10:57:23.661Z,27.07
2022-10-03T11:00:22.036Z,25.58
2022-10-03T11:04:14.399Z,27.68
2022-10-03T11:07:12.780Z,28.48
2022-10-03T11:10:27.660Z,26.91
2022-10-03T11:13:44.168Z,27.90
2022-10-03T11:17:12.259Z,26.80
2022-10-03T11:20:33.945Z,29.40
2022-10-03T11:23:57.452Z,27.48
2022-10-03T11:27:17.394Z,29.38
2022-10-03T11:30:25.259Z,29.21
2022-10-03T11:33:56.753Z,27.24
2022-10-03T11:37:14.232Z,28.06
2022-10-03T11:39:50.452Z,27.78
2022-10-03T11:42:39.752Z,27.85
2022-10-03T11:45:27.557Z,27.84
2022-10-03T11:48:13.172Z,29.13
2022-10-03T11:50:47.705Z,27.24
2022-10-03T11:53:40.331Z,27.75
2022-10-03T11:56:30.043Z,29.09
2022-10-03T11:59:26.628Z,27.68
2022-10-03T12:02:12.127Z,27.12
2022-10-03T12:04:58.390Z,26.91
2022-10-03T12:08:02.819Z,25.89
2022-10-03T12:10:43.420Z,27.21
2022-10-03T12:13:17.285Z,26.02
2022-10-03T12:15:49.092Z,25.43
2022-10-03T12:18:29.930Z,25.19
2022-10-03T12:21:12.009Z,25.23
2022-10-03T12:24:01.067Z,27.07
2022-10-03T12:26:45.050Z,26.86
2022-10-03T12:29:16.235Z,27.09
2022-10-03T12:31:56.212Z,28.20
2022-10-03T12:34:45.632Z,28.75
2022-10-03T12:37:43.368Z,28.52
2022-10-03T12:40:20.374Z,27.29
2022-10-03T12:43:04.407Z,28.59
2022-10-03T12:45:40.931Z,28.68
2022-10-03T12:48:47.942Z,28.10
2022-10-03T12:51:37.851Z,28.29
2022-10-03T12:54:21.563Z,28.24
2022-10-03T12:57:20.039Z,28.35
2022-10-03T12:59:57.894Z,29.12
2022-10-03T13:02:35.345Z,28.32
2022-10-03T13:05:34.836Z,28.75
2022-10-03T13:08:07.977Z,28.64
2022-10-03T13:10:42.963Z,28.30
2022-10-03T13:13:33.611Z,29.01
2022-10-03T13:16:19.725Z,27.97
2022-10-03T13:19:04.312Z,28.10
2022-10-03T13:22:06.178Z,28.81
2022-10-03T13:24:40.535Z,27.07
2022-10-03T13:27:42.775Z,28.62
2022-10-03T13:30:21.600Z,27.80
2022-10-03T13:32:56.559Z,27.27
2022-10-03T13:35:52.937Z,29.12
2022-10-03T13:39:02.635Z,27.81
2022-10-03T13:41:43.411Z,28.95
2022-10-03T13:44:18.806Z,28.54
2022-10-03T13:47:10.977Z,28.95
2022-10-03T13:49:53.780Z,30.51
2022-10-03T13:52:35.088Z,29.50
2022-10-03T13:55:21.193Z,28.01
2022-10-03T13:58:32.637Z,27.39
2022-10-03T14:01:38.449Z,27.85
2022-10-03T14:04:34.625Z,27.32
2022-10-03T14:07:22.483Z,29.03
2022-10-03T14:10:13.026Z,28.76
2022-10-03T14:12:59.406Z,29.24
2022-10-03T14:15:50.533Z,26.57
2022-10-03T14:18:34.508Z,27.85
2022-10-03T14:21:40.504Z,26.47
2022-10-03T14:24:39.811Z,28.28
2022-10-03T14:27:49.676Z,27.59
2022-10-03T14:30:23.351Z,26.97
2022-10-03T14:33:18.344Z,28.30
2022-10-03T14:36:26.401Z,26.99
2022-10-03T14:39:35.753Z,27.65
2022-10-03T14:42:26.578Z,28.44
2022-10-03T14:44:59.921Z,28.45
2022-10-03T14:47:37.531Z,28.03
2022-10-03T14:50:08.169Z,27.73
2022-10-03T14:52:46.789Z,27.99
2022-10-03T14:55:22.351Z,28.67
2022-10-03T14:58:11.838Z,29.03
2022-10-03T15:00:48.758Z,28.73
2022-10-03T15:03:38.256Z,29.22
2022-10-03T15:06:41.405Z,28.48
2022-10-03T15:09:23.427Z,29.62
2022-10-03T15:12:04.409Z,29.76
2022-10-03T15:14:39.528Z,31.31
2022-10-03T15:17:29.776Z,30.67
2022-10-03T15:20:10.029Z,31.00
2022-10-03T15:22:50.946Z,29.42
2022-10-03T15:25:22.534Z,31.08
2022-10-03T15:27:57.636Z,30.62
2022-10-03T15:30:32.283Z,31.91
2022-10-03T15:33:12.639Z,30.82
2022-10-03T15:35:46.908Z,30.15
2022-10-03T15:38:19.549Z,30.25
2022-10-03T15:40:54.491Z,29.45
2022-10-03T15:43:35.144Z,29.38
2022-10-03T15:46:14.067Z,29.11
2022-10-03T15:48:47.493Z,28.73
2022-10-03T15:51:21.012Z,27.88
2022-10-03T15:53:51.825Z,28.16
2022-10-03T15:56:28.067Z,28.04
2022-10-03T15:59:05.893Z,28.39
2022-10-03T16:01:39.600Z,27.77
2022-10-03T16:04:16.395Z,27.65
2022-10-03T16:06:51.551Z,27.71
2022-10-03T16:09:33.393Z,27.16
2022-10-03T16:12:35.209Z,27.24
2022-10-03T16:15:20.803Z,28.13
2022-10-03T16:17:52.216Z,28.05
2022-10-03T16:20:34.085Z,28.10
2022-10-03T16:23:17.382Z,28.03
2022-10-03T16:25:57.625Z,27.74
2022-10-03T16:28:33.149Z,27.63
2022-10-03T16:31:06.026Z,27.78
2022-10-03T16:33:40.083Z,27.59
2022-10-03T16:36:18.132Z,27.34
2022-10-03T16:39:02.852Z,26.96
2022-10-03T16:41:44.023Z,26.31
2022-10-03T16:44:26.153Z,25.91
2022-10-03T16:46:59.727Z,25.55
2022-10-03T16:49:57.959Z,25.30
2022-10-03T16:52:34.656Z,24.82
2022-10-03T16:55:08.529Z,25.15
2022-10-03T16:57:47.988Z,25.17
2022-10-03T17:00:24.776Z,25.01
2022-10-03T17:02:57.116Z,25.07
2022-10-03T17:05:25.885Z,24.05
2022-10-03T17:08:06.644Z,24.23
2022-10-03T17:10:56.108Z,23.64
2022-10-03T17:13:31.981Z,23.41
2022-10-03T17:16:07.454Z,23.24
2022-10-03T17:18:45.821Z,23.50
2022-10-03T17:21:25.999Z,23.33
2022-10-03T17:24:05.437Z,23.78
2022-10-03T17:26:45.197Z,23.74
2022-10-03T17:29:19.594Z,23.59
2022-10-03T17:31:56.609Z,23.23
2022-10-03T17:34:33.757Z,23.10
2022-10-03T17:37:53.049Z,22.28
2022-10-03T17:40:51.606Z,22.20
2022-10-03T17:43:31.592Z,21.70
2022-10-03T17:46:07.893Z,22.54
2022-10-03T17:48:41.608Z,22.17
2022-10-03T17:51:40.356Z,22.26
2022-10-03T17:54:15.246Z,22.85
2022-10-03T17:56:47.058Z,21.98
2022-10-03T17:59:23.096Z,21.28
2022-10-03T18:01:57.938Z,21.58
2022-10-03T18:04:34.891Z,21.97
2022-10-03T18:07:13.406Z,21.92
2022-10-03T18:09:48.303Z,21.90
2022-10-03T18:12:35.286Z,22.01
2022-10-03T18:15:47.107Z,21.88
2022-10-03T18:19:07.155Z,21.79
2022-10-03T18:21:51.664Z,21.82
2022-10-03T18:24:56.656Z,21.68
2022-10-03T18:28:15.979Z,21.61
2022-10-03T18:30:57.557Z,21.67
2022-10-03T18:33:32.488Z,21.54
2022-10-03T18:36:16.756Z,21.42
2022-10-03T18:38:46.557Z,21.29
2022-10-03T18:41:19.236Z,21.43
2022-10-03T18:43:59.176Z,21.42
2022-10-03T18:46:33.799Z,21.53
2022-10-03T18:52:00.543Z,21.43
2022-10-03T18:54:45.760Z,21.14
2022-10-03T18:57:25.303Z,21.21
2022-10-03T19:00:01.728Z,21.09
2022-10-03T19:02:45.925Z,21.22
2022-10-03T19:05:21.884Z,21.15
2022-10-03T19:07:56.034Z,20.80
2022-10-03T19:10:45.633Z,21.23
2022-10-03T19:13:31.218Z,21.22
2022-10-03T19:16:20.517Z,21.06
2022-10-03T19:19:03.310Z,21.09
2022-10-03T19:21:43.372Z,20.84
2022-10-03T19:24:40.159Z,20.75
2022-10-03T19:27:20.680Z,19.91
2022-10-03T19:29:56.163Z,20.05
2022-10-03T19:32:31.731Z,20.52
2022-10-03T19:35:03.971Z,20.64
2022-10-03T19:37:45.468Z,20.53
2022-10-03T19:40:29.201Z,20.49
2022-10-03T19:43:05.212Z,20.20
2022-10-03T19:45:47.721Z,20.16
2022-10-03T19:48:18.465Z,20.28
2022-10-03T19:50:52.900Z,20.26
2022-10-03T19:53:35.088Z,19.61
2022-10-03T19:56:18.283Z,20.50
2022-10-03T19:59:02.661Z,20.81
2022-10-03T20:01:44.800Z,19.70
2022-10-03T20:04:36.151Z,20.07
2022-10-03T20:07:18.017Z,19.92
2022-10-03T20:09:58.908Z,19.84
2022-10-03T20:12:31.654Z,20.33
2022-10-03T20:15:23.575Z,19.88
2022-10-03T20:18:01.441Z,20.06
2022-10-03T20:20:32.227Z,20.32
2022-10-03T20:23:07.319Z,19.98
2022-10-03T20:25:41.888Z,19.69
2022-10-03T20:28:23.355Z,19.27
2022-10-03T20:30:54.435Z,19.40
2022-10-03T20:33:29.532Z,19.85
2022-10-03T20:36:05.274Z,19.80
2022-10-03T20:39:01.757Z,19.99
2022-10-03T20:41:50.470Z,19.94
2022-10-03T20:44:46.693Z,19.94
2022-10-03T20:47:44.400Z,19.66
2022-10-03T20:50:26.029Z,20.07
2022-10-03T20:53:00.896Z,20.13
2022-10-03T20:55:35.787Z,19.54
2022-10-03T20:58:18.775Z,19.65
2022-10-03T21:00:56.036Z,19.67
2022-10-03T21:03:34.760Z,19.65
2022-10-03T21:06:18.361Z,19.56
2022-10-03T21:08:48.012Z,19.61
2022-10-03T21:11:24.028Z,19.44
2022-10-03T21:14:15.423Z,18.92
2022-10-03T21:16:49.674Z,18.82
2022-10-03T21:19:24.522Z,18.89
2022-10-03T21:21:59.381Z,19.35
2022-10-03T21:24:31.581Z,19.58
2022-10-03T21:27:13.090Z,19.81
2022-10-03T21:29:54.135Z,18.91
2022-10-03T21:32:58.185Z,19.24
2022-10-03T21:35:31.380Z,19.39
2022-10-03T21:38:15.475Z,19.24
2022-10-03T21:40:59.879Z,19.42
2022-10-03T21:43:51.078Z,19.03
2022-10-03T21:46:30.483Z,19.00
2022-10-03T21:49:33.405Z,18.93
2022-10-03T21:52:30.084Z,19.25
2022-10-03T21:55:45.471Z,19.02
2022-10-03T21:58:45.388Z,18.57
2022-10-03T22:01:21.307Z,19.00
2022-10-03T22:04:00.098Z,19.14
2022-10-03T22:06:40.413Z,19.09
2022-10-03T22:09:17.092Z,18.77
2022-10-03T22:11:55.981Z,19.01
2022-10-03T22:14:47.087Z,19.21
2022-10-03T22:17:25.295Z,18.94
2022-10-03T22:20:10.389Z,19.01
2022-10-03T22:23:14.879Z,18.98
2022-10-03T22:26:04.764Z,18.78
2022-10-03T22:28:48.161Z,18.85
2022-10-03T22:31:26.544Z,18.69
2022-10-03T22:34:29.073Z,18.89
2022-10-03T22:36:58.921Z,18.56
2022-10-03T22:39:30.780Z,18.81
2022-10-03T22:42:03.025Z,18.55
2022-10-03T22:44:39.375Z,18.90
2022-10-03T22:47:14.272Z,19.17
2022-10-03T22:49:48.288Z,19.29
2022-10-03T22:52:23.943Z,19.47
2022-10-03T22:55:03.458Z,18.74
2022-10-03T22:57:40.503Z,18.57
2022-10-03T23:00:12.914Z,19.37
2022-10-03T23:02:48.310Z,19.36
2022-10-03T23:05:26.967Z,19.33
2022-10-03T23:08:12.091Z,19.06
2022-10-03T23:10:51.595Z,19.06
2022-10-03T23:13:38.257Z,18.40
2022-10-03T23:16:29.683Z,19.02
2022-10-03T23:19:11.716Z,18.91
2022-10-03T23:21:47.255Z,17.90
2022-10-03T23:24:24.659Z,18.17
2022-10-03T23:27:30.076Z,18.76
2022-10-03T23:30:54.139Z,19.26
2022-10-03T23:33:51.184Z,18.89
2022-10-03T23:36:24.852Z,18.99
2022-10-03T23:38:59.903Z,18.96
2022-10-03T23:41:47.288Z,18.86
2022-10-03T23:44:49.518Z,18.73
2022-10-03T23:47:24.176Z,18.80
2022-10-03T23:49:55.414Z,18.70
2022-10-03T23:52:33.992Z,18.34
2022-10-03T23:55:08.617Z,18.26
2022-10-03T23:57:44.496Z,18.44
